Time;durP1;ratioP1;P1;durP2;ratioP2;P2;SDS_P1;SDS_P2;PMS_P1;PMS_P2;Temp;Humidity;BMP_temperature;BMP_pressure;BME280_temperature;BME280_humidity;BME280_pressure;Samples;Min_cycle;Max_cycle;Signal;HPM_P1;HPM_P2
2023/04/12 00:02:11;;;;;;;5.97;2.63;;;7.90;99.90;;;;;;6366097;22;20054;-83
2023/04/12 00:04:38;;;;;;;8.48;3.00;;;8.00;99.90;;;;;;6337057;22;20332;-83
2023/04/12 00:07:04;;;;;;;9.63;2.92;;;8.00;99.90;;;;;;6337031;22;20566;-84
2023/04/12 00:09:31;;;;;;;10.82;3.20;;;7.90;99.90;;;;;;6335995;22;20027;-82
2023/04/12 00:11:58;;;;;;;6.32;2.40;;;8.00;99.90;;;;;;6335575;22;20079;-84
2023/04/12 00:14:25;;;;;;;4.95;2.40;;;8.00;99.90;;;;;;6335711;22;20441;-83
2023/04/12 00:16:51;;;;;;;7.57;2.17;;;8.10;99.90;;;;;;6335989;22;20352;-83
2023/04/12 00:19:17;;;;;;;13.02;3.00;;;8.10;99.90;;;;;;6364325;22;20014;-83
2023/04/12 00:21:43;;;;;;;7.10;3.17;;;8.10;99.90;;;;;;6335426;22;20030;-83
2023/04/12 00:24:09;;;;;;;9.00;3.13;;;8.10;99.90;;;;;;6363857;22;20022;-82
2023/04/12 00:26:35;;;;;;;8.52;3.28;;;8.10;99.90;;;;;;6335558;22;20098;-83
2023/04/12 00:29:01;;;;;;;7.15;2.85;;;8.10;99.90;;;;;;6363886;22;20026;-84
2023/04/12 00:31:26;;;;;;;12.15;3.20;;;8.10;99.90;;;;;;6335577;22;20489;-83
2023/04/12 00:33:52;;;;;;;7.70;2.58;;;8.20;99.90;;;;;;6364051;22;20021;-83
2023/04/12 00:36:18;;;;;;;9.35;2.58;;;8.20;99.90;;;;;;6363955;22;20044;-83
2023/04/12 00:38:46;;;;;;;2.97;2.42;;;8.30;99.90;;;;;;6336050;22;20026;-83
2023/04/12 00:41:16;;;;;;;6.18;2.47;;;8.30;99.90;;;;;;6335385;22;20040;-82
2023/04/12 00:43:42;;;;;;;4.57;2.45;;;8.30;99.90;;;;;;6335561;22;20025;-82
2023/04/12 00:46:08;;;;;;;10.18;2.70;;;8.40;99.90;;;;;;6363904;22;20030;-82
2023/04/12 00:48:35;;;;;;;9.02;2.88;;;8.40;99.90;;;;;;6334973;22;20018;-82
2023/04/12 00:51:02;;;;;;;11.45;2.80;;;8.50;99.90;;;;;;6363165;22;20746;-83
2023/04/12 00:53:28;;;;;;;5.22;2.63;;;8.50;99.90;;;;;;6335942;22;20026;-82
2023/04/12 00:55:54;;;;;;;11.93;2.70;;;8.60;99.90;;;;;;6335423;22;20029;-83
2023/04/12 00:58:23;;;;;;;9.43;2.42;;;8.60;99.90;;;;;;6335622;22;20028;-83
2023/04/12 01:00:56;;;;;;;9.70;3.05;;;8.70;99.90;;;;;;6336125;22;20611;-83
2023/04/12 01:03:22;;;;;;;8.88;3.30;;;8.70;99.90;;;;;;6363795;22;20101;-83
2023/04/12 01:06:12;;;;;;;8.20;2.70;;;8.80;99.90;;;;;;6335568;22;20030;-82
2023/04/12 01:09:04;;;;;;;8.25;3.35;;;8.90;99.90;;;;;;6336011;22;20045;-80
2023/04/12 01:12:01;;;;;;;9.50;3.08;;;9.00;99.90;;;;;;6351209;22;20022;-83
2023/04/12 01:14:47;;;;;;;11.38;2.50;;;8.90;99.90;;;;;;6364293;22;20420;-83
2023/04/12 01:17:19;;;;;;;6.93;2.53;;;9.00;99.90;;;;;;6364527;22;20022;-83
2023/04/12 01:20:12;;;;;;;11.68;3.00;;;9.00;99.90;;;;;;6336237;22;20022;-83
2023/04/12 01:22:49;;;;;;;9.35;3.00;;;9.00;99.90;;;;;;6364334;22;20310;-83
2023/04/12 01:25:46;;;;;;;8.90;2.80;;;9.10;99.90;;;;;;6335750;22;20042;-83
2023/04/12 01:28:16;;;;;;;12.35;2.58;;;9.20;99.90;;;;;;6335250;22;20102;-82
2023/04/12 01:30:45;;;;;;;6.97;2.17;;;9.10;99.90;;;;;;6363940;22;20015;-82
2023/04/12 01:33:11;;;;;;;9.23;2.47;;;9.20;99.90;;;;;;6335158;22;20015;-82
2023/04/12 01:35:38;;;;;;;9.40;2.75;;;9.20;99.90;;;;;;6335214;22;20051;-82
2023/04/12 01:38:05;;;;;;;8.75;2.60;;;9.20;99.90;;;;;;6336140;22;20042;-83
2023/04/12 01:40:31;;;;;;;4.90;2.65;;;9.20;99.90;;;;;;6335162;22;20597;-82
2023/04/12 01:43:12;;;;;;;12.85;2.88;;;9.20;99.90;;;;;;6335137;22;20503;-82
2023/04/12 01:45:38;;;;;;;5.03;2.38;;;9.20;99.90;;;;;;6363542;22;20124;-82
2023/04/12 01:48:06;;;;;;;7.90;3.15;;;9.20;99.90;;;;;;6334805;22;20022;-82
2023/04/12 01:50:48;;;;;;;8.38;2.58;;;9.20;99.90;;;;;;6334981;22;20093;-81
2023/04/12 01:53:32;;;;;;;11.40;2.90;;;9.20;99.90;;;;;;6335827;22;20318;-82
2023/04/12 01:56:03;;;;;;;6.78;2.75;;;9.10;99.90;;;;;;6336562;22;20064;-82
2023/04/12 01:58:30;;;;;;;9.10;3.92;;;9.10;99.90;;;;;;6337179;22;20056;-82
2023/04/12 02:00:57;;;;;;;14.45;3.25;;;9.10;99.90;;;;;;6336317;22;20080;-83
2023/04/12 02:03:23;;;;;;;9.02;2.25;;;9.10;99.90;;;;;;6364630;22;20081;-82
2023/04/12 02:05:51;;;;;;;5.10;2.22;;;9.10;99.90;;;;;;6364602;22;20379;-82
2023/04/12 02:08:17;;;;;;;6.28;2.47;;;9.10;99.90;;;;;;6336799;22;20496;-82
2023/04/12 02:10:42;;;;;;;4.90;2.00;;;9.10;99.90;;;;;;6336789;22;20019;-82
2023/04/12 02:13:08;;;;;;;8.48;2.45;;;9.00;99.90;;;;;;6336843;22;20026;-81
2023/04/12 02:15:36;;;;;;;8.68;1.90;;;9.00;99.90;;;;;;6334965;22;20089;-81
2023/04/12 02:18:02;;;;;;;5.97;2.13;;;9.00;99.90;;;;;;6334661;22;20121;-82
2023/04/12 02:20:27;;;;;;;6.78;2.00;;;9.00;99.90;;;;;;6335139;22;20420;-83
2023/04/12 02:22:53;;;;;;;5.50;2.35;;;9.00;99.90;;;;;;6334815;22;20019;-82
2023/04/12 02:25:19;;;;;;;5.80;2.50;;;8.90;99.90;;;;;;6362943;22;20097;-82
2023/04/12 02:27:45;;;;;;;6.60;2.42;;;9.00;99.90;;;;;;6334672;22;20075;-82
2023/04/12 02:30:12;;;;;;;4.80;2.05;;;8.90;99.90;;;;;;6334761;22;20022;-82
2023/04/12 02:32:44;;;;;;;5.50;2.10;;;8.90;99.90;;;;;;6334561;22;20105;-82
2023/04/12 02:35:17;;;;;;;4.43;2.40;;;8.90;99.90;;;;;;6336216;22;20098;-82
2023/04/12 02:37:47;;;;;;;6.45;2.08;;;8.90;99.90;;;;;;6336765;22;20022;-82
2023/04/12 02:40:16;;;;;;;5.00;2.28;;;8.90;99.90;;;;;;6336553;22;20326;-82
2023/04/12 02:42:43;;;;;;;5.78;2.42;;;8.90;99.90;;;;;;6336571;22;20022;-82
2023/04/12 02:45:10;;;;;;;5.90;2.05;;;8.90;99.90;;;;;;6310235;22;20046;-81
2023/04/12 02:47:36;;;;;;;5.78;1.88;;;8.90;99.90;;;;;;6336138;22;20018;-81
2023/04/12 02:50:03;;;;;;;3.83;2.28;;;8.90;99.90;;;;;;6335885;22;20018;-81
2023/04/12 02:52:29;;;;;;;5.88;2.38;;;8.90;99.90;;;;;;6336241;22;20171;-82
2023/04/12 02:54:57;;;;;;;6.72;2.15;;;8.80;99.90;;;;;;6365090;22;20018;-81
2023/04/12 02:57:23;;;;;;;8.30;2.25;;;8.80;99.90;;;;;;6336545;22;20018;-82
2023/04/12 02:59:53;;;;;;;8.38;2.78;;;8.80;99.90;;;;;;6336347;22;20057;-81
2023/04/12 03:02:19;;;;;;;5.53;1.85;;;8.80;99.90;;;;;;6336005;22;20667;-82
2023/04/12 03:04:46;;;;;;;10.75;3.42;;;8.80;99.90;;;;;;6364662;22;20029;-82
2023/04/12 03:07:16;;;;;;;7.25;1.85;;;8.80;99.90;;;;;;6336419;22;20029;-82
2023/04/12 03:09:43;;;;;;;5.10;1.92;;;8.80;99.90;;;;;;6336039;22;20015;-81
2023/04/12 03:12:09;;;;;;;6.32;2.88;;;8.80;99.90;;;;;;6364501;22;20022;-81
2023/04/12 03:14:35;;;;;;;2.60;2.08;;;8.80;99.90;;;;;;6364500;22;20018;-82
2023/04/12 03:17:00;;;;;;;3.05;1.98;;;8.80;99.90;;;;;;6364492;22;20075;-81
2023/04/12 03:19:27;;;;;;;5.65;1.88;;;8.80;99.90;;;;;;6365070;22;20464;-82
2023/04/12 03:21:53;;;;;;;4.53;2.00;;;8.80;99.90;;;;;;6364530;22;20049;-82
2023/04/12 03:24:19;;;;;;;5.53;2.10;;;8.80;99.90;;;;;;6336166;22;20017;-82
2023/04/12 03:26:45;;;;;;;9.60;3.22;;;8.80;99.90;;;;;;6336092;22;20085;-81
2023/04/12 03:29:11;;;;;;;5.97;2.30;;;8.80;99.90;;;;;;6335934;22;20125;-81
2023/04/12 03:31:36;;;;;;;7.43;2.38;;;8.80;99.90;;;;;;6336393;22;20362;-82
2023/04/12 03:34:02;;;;;;;7.55;2.22;;;8.90;99.90;;;;;;6336253;22;20026;-82
2023/04/12 03:36:29;;;;;;;4.68;2.10;;;8.80;99.90;;;;;;6310209;22;20026;-81
2023/04/12 03:38:55;;;;;;;5.15;2.45;;;8.80;99.90;;;;;;6364558;22;20443;-82
2023/04/12 03:41:23;;;;;;;9.77;2.45;;;8.90;99.90;;;;;;6363927;22;20136;-82
2023/04/12 03:43:49;;;;;;;5.07;1.70;;;8.80;99.90;;;;;;6364302;22;20029;-81
2023/04/12 03:46:15;;;;;;;6.20;2.45;;;8.90;99.90;;;;;;6363506;22;20046;-81
2023/04/12 03:48:41;;;;;;;5.63;2.20;;;8.90;99.90;;;;;;6364500;22;20410;-80
2023/04/12 03:51:10;;;;;;;3.88;2.88;;;8.80;99.90;;;;;;6364695;22;20028;-81
2023/04/12 03:53:37;;;;;;;4.25;2.10;;;8.80;99.90;;;;;;6364536;22;20014;-79
2023/04/12 03:56:03;;;;;;;3.58;2.20;;;8.80;99.90;;;;;;6364119;22;20508;-80
2023/04/12 03:58:28;;;;;;;3.50;2.22;;;8.90;99.90;;;;;;6336072;22;20045;-81
2023/04/12 04:00:54;;;;;;;9.95;2.47;;;8.80;99.90;;;;;;6336298;22;20026;-81
2023/04/12 04:03:25;;;;;;;6.10;2.45;;;8.80;99.90;;;;;;6335925;22;20018;-81
2023/04/12 04:05:51;;;;;;;4.90;2.15;;;8.90;99.90;;;;;;6336372;22;20018;-81
2023/04/12 04:08:17;;;;;;;8.02;3.65;;;8.90;99.90;;;;;;6336562;22;20018;-81
2023/04/12 04:10:43;;;;;;;5.65;2.33;;;8.80;99.90;;;;;;6365290;22;20049;-81
2023/04/12 04:13:09;;;;;;;4.97;2.25;;;8.80;99.90;;;;;;6310935;22;20026;-81
2023/04/12 04:15:35;;;;;;;3.55;2.67;;;8.80;99.90;;;;;;6336244;22;20095;-81
2023/04/12 04:18:01;;;;;;;6.60;2.50;;;8.80;99.90;;;;;;6336788;22;20022;-81
2023/04/12 04:20:27;;;;;;;5.07;2.70;;;8.80;99.90;;;;;;6337208;22;20508;-81
2023/04/12 04:22:52;;;;;;;7.95;2.25;;;8.80;99.90;;;;;;6365022;22;20452;-81
2023/04/12 04:25:18;;;;;;;7.68;2.17;;;8.80;99.90;;;;;;6336124;22;20054;-81
2023/04/12 04:27:44;;;;;;;5.43;2.63;;;8.80;99.90;;;;;;6336356;22;20026;-81
2023/04/12 04:30:17;;;;;;;5.55;2.30;;;8.60;99.90;;;;;;6336316;22;20010;-80
2023/04/12 04:32:43;;;;;;;7.45;2.50;;;8.60;99.90;;;;;;6310613;22;20033;-80
2023/04/12 04:35:08;;;;;;;11.32;3.25;;;8.60;99.90;;;;;;6310458;22;20085;-80
2023/04/12 04:37:34;;;;;;;7.10;2.50;;;8.60;99.90;;;;;;6336290;22;20083;-80
2023/04/12 04:40:13;;;;;;;5.70;2.42;;;8.60;99.90;;;;;;6335666;22;20027;-79
2023/04/12 04:42:38;;;;;;;3.70;2.33;;;8.60;99.90;;;;;;6335441;22;20512;-79
2023/04/12 04:45:11;;;;;;;7.10;2.95;;;8.60;99.90;;;;;;6335986;22;20018;-79
2023/04/12 04:47:40;;;;;;;7.43;2.35;;;8.60;99.90;;;;;;6363827;22;20022;-79
2023/04/12 04:50:06;;;;;;;10.45;3.03;;;8.50;99.90;;;;;;6360359;22;20022;-78
2023/04/12 04:52:32;;;;;;;7.57;2.45;;;8.50;99.90;;;;;;6335359;22;20377;-77
2023/04/12 04:54:57;;;;;;;5.78;2.80;;;8.60;99.90;;;;;;6363313;22;20022;-76
2023/04/12 04:57:25;;;;;;;5.50;2.53;;;8.50;99.90;;;;;;6334777;22;20093;-76
2023/04/12 04:59:51;;;;;;;8.20;2.58;;;8.60;99.90;;;;;;6363128;22;20101;-76
2023/04/12 05:02:17;;;;;;;4.63;2.83;;;8.50;99.90;;;;;;6335578;22;20049;-75
2023/04/12 05:04:42;;;;;;;5.40;2.33;;;8.50;99.90;;;;;;6363392;22;20025;-75
2023/04/12 05:07:08;;;;;;;7.93;2.33;;;8.50;99.90;;;;;;6335448;22;20018;-75
2023/04/12 05:09:34;;;;;;;6.47;2.20;;;8.40;99.90;;;;;;6363458;22;20026;-75
2023/04/12 05:11:59;;;;;;;2.95;1.83;;;8.40;99.90;;;;;;6363804;22;20018;-75
2023/04/12 05:14:25;;;;;;;6.43;2.20;;;8.50;99.90;;;;;;6363613;22;20010;-74
2023/04/12 05:16:51;;;;;;;5.18;2.58;;;8.50;99.90;;;;;;6335661;22;20029;-74
2023/04/12 05:19:16;;;;;;;6.25;2.20;;;8.40;99.90;;;;;;6335468;22;20014;-74
2023/04/12 05:21:42;;;;;;;5.35;2.40;;;8.40;99.90;;;;;;6335313;22;20014;-73
2023/04/12 05:24:08;;;;;;;7.03;2.58;;;8.30;99.90;;;;;;6363821;22;20018;-72
2023/04/12 05:26:34;;;;;;;7.18;2.75;;;8.30;99.90;;;;;;6363459;22;20421;-73
2023/04/12 05:29:00;;;;;;;5.60;2.20;;;8.30;99.90;;;;;;6363297;22;20050;-73
2023/04/12 05:31:26;;;;;;;8.45;2.33;;;8.30;99.90;;;;;;6334990;22;20432;-73
2023/04/12 05:33:53;;;;;;;7.88;2.28;;;8.30;99.90;;;;;;6335005;22;20045;-73
2023/04/12 05:36:19;;;;;;;6.72;2.15;;;8.30;99.90;;;;;;6334937;22;20471;-72
2023/04/12 05:38:45;;;;;;;7.75;1.83;;;8.30;99.90;;;;;;6334993;22;20722;-73
2023/04/12 05:41:11;;;;;;;4.20;2.65;;;8.20;99.90;;;;;;6362183;22;20022;-73
2023/04/12 05:43:37;;;;;;;3.00;2.70;;;8.20;99.90;;;;;;6362968;22;20026;-73
2023/04/12 05:46:07;;;;;;;6.28;2.70;;;8.30;99.90;;;;;;6334858;22;20398;-72
2023/04/12 05:48:32;;;;;;;5.68;2.20;;;8.20;99.90;;;;;;6362780;22;20105;-71
2023/04/12 05:50:58;;;;;;;4.13;2.20;;;8.10;99.90;;;;;;6363456;22;20338;-72
2023/04/12 05:53:24;;;;;;;4.32;2.63;;;8.20;99.90;;;;;;6334808;22;20022;-72
2023/04/12 05:55:50;;;;;;;9.55;2.55;;;8.20;99.90;;;;;;6334426;22;20018;-72
2023/04/12 05:58:16;;;;;;;5.80;2.88;;;8.20;99.90;;;;;;6334784;22;20025;-72
2023/04/12 06:00:44;;;;;;;4.10;2.20;;;8.20;99.90;;;;;;6308973;22;20014;-72
2023/04/12 06:03:10;;;;;;;3.15;2.00;;;8.20;99.90;;;;;;6334706;22;20029;-73
2023/04/12 06:05:36;;;;;;;5.80;2.28;;;8.10;99.90;;;;;;6363174;22;20072;-72
2023/04/12 06:08:04;;;;;;;4.63;2.22;;;8.20;99.90;;;;;;6362990;22;20033;-74
2023/04/12 06:10:30;;;;;;;3.67;2.03;;;8.10;99.90;;;;;;6336581;22;20087;-73
2023/04/12 06:12:56;;;;;;;4.28;2.55;;;8.20;99.90;;;;;;6365541;22;20010;-73
2023/04/12 06:15:21;;;;;;;4.47;2.33;;;8.20;99.90;;;;;;6337026;22;20102;-72
2023/04/12 06:17:50;;;;;;;5.95;2.45;;;8.20;99.90;;;;;;6312281;22;20026;-72
2023/04/12 06:20:16;;;;;;;5.50;2.58;;;8.20;99.90;;;;;;6365955;22;20110;-72
2023/04/12 06:22:42;;;;;;;2.13;1.85;;;8.10;99.90;;;;;;6365467;22;20025;-73
2023/04/12 06:25:07;;;;;;;7.00;2.33;;;8.10;99.90;;;;;;6365240;22;20109;-72
2023/04/12 06:27:33;;;;;;;4.35;2.20;;;8.10;99.90;;;;;;6336510;22;20018;-73
2023/04/12 06:29:59;;;;;;;5.28;2.22;;;8.10;99.90;;;;;;6337025;22;20037;-73
2023/04/12 06:32:25;;;;;;;4.45;2.05;;;8.10;99.90;;;;;;6364956;22;20029;-73
2023/04/12 06:34:51;;;;;;;5.95;2.28;;;8.10;99.90;;;;;;6336395;22;20077;-73
2023/04/12 06:37:17;;;;;;;6.05;2.58;;;8.10;99.90;;;;;;6336310;22;20047;-74
2023/04/12 06:39:42;;;;;;;3.85;2.58;;;8.10;99.90;;;;;;6335846;22;20089;-73
2023/04/12 06:42:08;;;;;;;4.47;2.15;;;8.10;99.90;;;;;;6335926;22;20018;-73
2023/04/12 06:44:34;;;;;;;4.90;2.15;;;8.10;99.90;;;;;;6336061;22;20174;-74
2023/04/12 06:46:59;;;;;;;7.78;3.13;;;8.20;99.90;;;;;;6335975;22;20050;-73
2023/04/12 06:49:25;;;;;;;7.50;2.70;;;8.20;99.90;;;;;;6364260;22;20072;-74
2023/04/12 06:51:51;;;;;;;2.92;2.50;;;8.20;99.90;;;;;;6364190;22;20014;-73
2023/04/12 06:54:17;;;;;;;6.38;2.42;;;8.20;99.90;;;;;;6364404;22;20022;-72
2023/04/12 06:56:43;;;;;;;4.43;2.95;;;8.10;99.90;;;;;;6364780;22;20014;-73
2023/04/12 06:59:08;;;;;;;7.40;3.05;;;8.20;99.90;;;;;;6364507;22;20269;-72
2023/04/12 07:01:34;;;;;;;3.58;2.08;;;8.20;99.90;;;;;;6336076;22;20089;-72
2023/04/12 07:04:00;;;;;;;3.40;2.33;;;8.20;99.90;;;;;;6335916;22;20514;-74
2023/04/12 07:06:29;;;;;;;5.10;2.03;;;8.20;99.90;;;;;;6364706;22;20038;-75
2023/04/12 07:08:54;;;;;;;4.93;2.03;;;8.20;99.90;;;;;;6335850;22;20026;-73
2023/04/12 07:11:21;;;;;;;4.20;2.50;;;8.10;99.90;;;;;;6335897;22;20050;-73
2023/04/12 07:13:47;;;;;;;2.63;2.20;;;8.20;99.90;;;;;;6335656;22;20464;-73
2023/04/12 07:16:13;;;;;;;4.53;2.35;;;8.20;99.90;;;;;;6364228;22;20034;-73
2023/04/12 07:18:39;;;;;;;4.40;2.38;;;8.20;99.90;;;;;;6335919;22;20612;-74
2023/04/12 07:21:05;;;;;;;5.13;2.70;;;8.20;99.90;;;;;;6309708;22;20075;-73
2023/04/12 07:23:31;;;;;;;6.93;3.38;;;8.10;99.90;;;;;;6363681;22;20018;-74
2023/04/12 07:26:00;;;;;;;5.82;2.78;;;8.10;99.90;;;;;;6364142;22;20034;-73
2023/04/12 07:28:27;;;;;;;4.80;2.63;;;8.10;99.90;;;;;;6364151;22;20019;-74
2023/04/12 07:30:52;;;;;;;3.53;2.55;;;8.20;99.90;;;;;;6364215;22;20022;-74
2023/04/12 07:33:18;;;;;;;5.35;2.25;;;8.10;99.90;;;;;;6335727;22;20398;-74
2023/04/12 07:35:44;;;;;;;4.63;2.40;;;8.10;99.90;;;;;;6335749;22;20034;-74
2023/04/12 07:38:09;;;;;;;3.38;2.50;;;8.20;99.90;;;;;;6335763;22;20056;-73
2023/04/12 07:40:35;;;;;;;5.95;2.97;;;8.20;99.90;;;;;;6363555;22;20141;-73
2023/04/12 07:43:01;;;;;;;4.93;2.47;;;8.20;99.90;;;;;;6335851;22;20026;-74
2023/04/12 07:45:27;;;;;;;4.43;2.60;;;8.20;99.90;;;;;;6336158;22;20121;-73
2023/04/12 07:47:52;;;;;;;5.90;2.67;;;8.20;99.90;;;;;;6364050;22;20046;-73
2023/04/12 07:50:18;;;;;;;4.57;2.97;;;8.20;99.90;;;;;;6335653;22;20076;-74
2023/04/12 07:52:44;;;;;;;4.43;2.63;;;8.20;99.90;;;;;;6364186;22;20063;-74
2023/04/12 07:55:09;;;;;;;3.65;3.05;;;8.20;99.90;;;;;;6336080;22;20025;-74
2023/04/12 07:57:35;;;;;;;3.85;2.70;;;8.20;99.90;;;;;;6310326;22;20075;-74
2023/04/12 08:00:01;;;;;;;4.60;2.65;;;8.20;99.90;;;;;;6364607;22;20014;-74
2023/04/12 08:02:26;;;;;;;4.20;2.70;;;8.20;99.90;;;;;;6364459;22;20417;-74
2023/04/12 08:04:53;;;;;;;3.35;3.05;;;8.20;99.90;;;;;;6309977;22;20508;-73
2023/04/12 08:07:21;;;;;;;4.20;3.20;;;8.20;99.90;;;;;;6363623;22;20014;-74
2023/04/12 08:09:47;;;;;;;4.85;3.35;;;8.20;99.90;;;;;;6335487;22;20085;-75
2023/04/12 08:12:14;;;;;;;6.03;2.83;;;8.20;99.90;;;;;;6363794;22;20081;-74
2023/04/12 08:14:40;;;;;;;6.38;3.08;;;8.30;99.90;;;;;;6363798;22;20040;-75
2023/04/12 08:17:06;;;;;;;8.85;3.63;;;8.30;99.90;;;;;;6335730;22;20106;-75
2023/04/12 08:19:31;;;;;;;3.42;3.13;;;8.30;99.90;;;;;;6363997;22;20508;-74
2023/04/12 08:21:57;;;;;;;3.95;3.65;;;8.40;99.90;;;;;;6335543;22;20162;-73
2023/04/12 08:24:23;;;;;;;3.30;3.00;;;8.40;99.90;;;;;;6363679;22;20022;-73
2023/04/12 08:26:50;;;;;;;3.30;2.92;;;8.40;99.90;;;;;;6335699;22;20014;-73
2023/04/12 08:29:16;;;;;;;3.20;3.00;;;8.40;99.90;;;;;;6335944;22;20046;-74
2023/04/12 08:31:41;;;;;;;3.75;3.30;;;8.40;99.90;;;;;;6364126;22;20096;-73
2023/04/12 08:34:07;;;;;;;5.72;2.90;;;8.50;99.90;;;;;;6336049;22;20444;-74
2023/04/12 08:36:33;;;;;;;3.35;3.05;;;8.50;99.90;;;;;;6335728;22;20019;-74
2023/04/12 08:38:59;;;;;;;4.07;3.60;;;8.50;99.90;;;;;;6364440;22;20014;-73
2023/04/12 08:41:26;;;;;;;4.28;3.33;;;8.50;99.90;;;;;;6363946;22;20178;-73
2023/04/12 08:43:54;;;;;;;3.40;3.20;;;8.60;99.90;;;;;;6363807;22;20015;-74
2023/04/12 08:46:20;;;;;;;3.85;3.55;;;8.70;99.90;;;;;;6363811;22;20279;-73
2023/04/12 08:48:48;;;;;;;4.78;3.65;;;8.70;99.90;;;;;;6363725;22;20030;-73
2023/04/12 08:51:16;;;;;;;4.43;3.72;;;8.70;99.90;;;;;;6363212;22;20046;-72
2023/04/12 08:53:42;;;;;;;4.40;3.85;;;8.70;99.90;;;;;;6363842;22;20022;-74
2023/04/12 08:56:12;;;;;;;5.00;4.50;;;8.70;99.90;;;;;;6363460;22;20022;-73
2023/04/12 08:58:40;;;;;;;8.40;4.45;;;8.70;99.90;;;;;;6335774;22;20140;-73
2023/04/12 09:01:15;;;;;;;4.30;3.85;;;8.70;99.90;;;;;;6335807;22;20048;-73
2023/04/12 09:03:45;;;;;;;5.65;4.72;;;8.80;99.90;;;;;;6363428;22;20019;-73
2023/04/12 09:06:12;;;;;;;4.82;4.32;;;8.80;99.90;;;;;;6335849;22;20102;-73
2023/04/12 09:08:51;;;;;;;5.78;4.28;;;8.70;99.90;;;;;;6363485;22;20030;-73
2023/04/12 09:11:25;;;;;;;4.57;4.18;;;8.70;99.90;;;;;;6363994;22;20375;-74
2023/04/12 09:13:52;;;;;;;5.30;4.50;;;8.80;99.90;;;;;;6363546;22;20366;-73
2023/04/12 09:16:33;;;;;;;5.03;4.53;;;8.80;99.90;;;;;;6335257;22;20091;-73
2023/04/12 09:19:01;;;;;;;4.65;4.13;;;8.80;99.90;;;;;;6363527;22;20022;-73
2023/04/12 09:21:27;;;;;;;5.30;4.60;;;8.80;99.90;;;;;;6363413;22;20022;-73
2023/04/12 09:24:11;;;;;;;6.68;4.43;;;8.80;99.90;;;;;;6335555;22;20022;-73
2023/04/12 09:26:39;;;;;;;6.43;5.53;;;8.80;99.90;;;;;;6335256;22;20045;-73
2023/04/12 09:29:04;;;;;;;5.00;4.47;;;8.80;99.90;;;;;;6335502;22;20022;-73
2023/04/12 09:31:30;;;;;;;5.93;4.97;;;8.80;99.90;;;;;;6335241;22;20608;-73
2023/04/12 09:34:07;;;;;;;6.43;4.80;;;8.80;99.90;;;;;;6308990;22;20658;-73
2023/04/12 09:36:39;;;;;;;5.72;5.20;;;8.90;99.90;;;;;;6335016;22;20018;-73
2023/04/12 09:39:06;;;;;;;7.93;6.10;;;8.90;99.90;;;;;;6335371;22;20030;-73
2023/04/12 09:41:32;;;;;;;8.45;5.78;;;9.00;99.90;;;;;;6362802;22;20043;-73
2023/04/12 09:43:59;;;;;;;7.68;6.13;;;9.00;99.90;;;;;;6364709;22;20010;-72
2023/04/12 09:46:25;;;;;;;7.38;6.38;;;9.10;99.90;;;;;;6337043;22;20014;-72
2023/04/12 09:48:59;;;;;;;7.43;6.03;;;9.20;99.90;;;;;;6364742;22;20026;-73
2023/04/12 09:51:31;;;;;;;7.75;6.90;;;9.30;99.90;;;;;;6365387;22;20040;-73
2023/04/12 09:54:02;;;;;;;12.70;7.53;;;9.40;99.90;;;;;;6336928;22;20545;-73
2023/04/12 09:56:30;;;;;;;10.80;7.03;;;9.50;99.90;;;;;;6365413;22;20022;-73
2023/04/12 09:59:01;;;;;;;7.88;7.00;;;9.60;99.90;;;;;;6336978;22;20106;-73
2023/04/12 10:01:32;;;;;;;8.77;6.93;;;9.60;99.90;;;;;;6365036;22;20032;-73
2023/04/12 10:03:58;;;;;;;6.75;6.05;;;9.60;99.90;;;;;;6365846;22;20067;-73
2023/04/12 10:06:25;;;;;;;10.20;6.55;;;9.60;99.90;;;;;;6365707;22;20014;-72
2023/04/12 10:08:51;;;;;;;7.97;6.82;;;9.60;99.90;;;;;;6337328;22;20340;-73
2023/04/12 10:11:18;;;;;;;10.02;6.68;;;9.60;99.90;;;;;;6337206;22;20099;-73
2023/04/12 10:13:44;;;;;;;9.35;6.95;;;9.70;99.90;;;;;;6337219;22;20367;-73
2023/04/12 10:16:12;;;;;;;8.93;6.53;;;9.80;99.90;;;;;;6364976;22;20022;-73
2023/04/12 10:18:38;;;;;;;8.02;6.30;;;9.90;99.90;;;;;;6336849;22;20030;-73
2023/04/12 10:21:05;;;;;;;7.55;6.75;;;10.10;99.90;;;;;;6336586;22;20023;-73
2023/04/12 10:23:31;;;;;;;7.03;5.40;;;10.10;99.90;;;;;;6364755;22;20056;-73
2023/04/12 10:25:58;;;;;;;8.10;5.65;;;10.10;99.90;;;;;;6336453;22;20029;-71
2023/04/12 10:28:24;;;;;;;7.30;6.05;;;10.20;99.90;;;;;;6364650;22;20409;-71
2023/04/12 10:30:51;;;;;;;7.70;5.00;;;10.20;99.90;;;;;;6364811;22;20021;-72
2023/04/12 10:33:19;;;;;;;8.60;5.85;;;10.20;99.90;;;;;;6336310;22;20022;-71
2023/04/12 10:35:55;;;;;;;8.07;5.00;;;10.30;99.90;;;;;;6365032;22;20022;-72
2023/04/12 10:38:23;;;;;;;10.68;4.38;;;10.30;99.90;;;;;;6336425;22;20030;-72
2023/04/12 10:41:13;;;;;;;9.02;4.03;;;10.40;99.90;;;;;;6364106;22;20121;-72
2023/04/12 10:43:44;;;;;;;5.22;3.90;;;10.50;99.90;;;;;;6364572;22;20018;-72
2023/04/12 10:46:37;;;;;;;6.30;3.40;;;10.60;99.90;;;;;;6336093;22;20022;-72
2023/04/12 10:49:14;;;;;;;8.40;3.55;;;10.70;99.90;;;;;;6335872;22;20026;-72
2023/04/12 10:52:02;;;;;;;6.88;3.55;;;10.60;99.90;;;;;;6336300;22;20026;-72
2023/04/12 10:54:28;;;;;;;11.45;4.55;;;10.60;99.90;;;;;;6336838;22;20037;-72
2023/04/12 10:56:56;;;;;;;10.18;3.80;;;10.50;99.90;;;;;;6336688;22;20510;-72
2023/04/12 10:59:22;;;;;;;8.68;4.57;;;10.70;99.90;;;;;;6336275;22;20018;-72
2023/04/12 11:02:06;;;;;;;12.60;3.72;;;10.80;99.90;;;;;;6335883;22;20045;-73
2023/04/12 11:04:31;;;;;;;13.70;4.03;;;10.90;99.90;;;;;;6364533;22;20481;-74
2023/04/12 11:07:10;;;;;;;7.90;3.20;;;11.10;99.90;;;;;;6364872;22;20061;-74
2023/04/12 11:09:35;;;;;;;6.03;3.10;;;11.00;99.90;;;;;;6336365;22;20018;-74
2023/04/12 11:12:04;;;;;;;9.13;3.83;;;11.10;99.90;;;;;;6336464;22;20045;-74
2023/04/12 11:14:33;;;;;;;10.80;3.60;;;11.20;99.90;;;;;;6336165;22;20041;-73
2023/04/12 11:17:05;;;;;;;12.77;3.67;;;11.30;99.90;;;;;;6365130;22;20449;-73
2023/04/12 11:19:36;;;;;;;6.65;3.30;;;11.40;99.90;;;;;;6310900;22;20018;-74
2023/04/12 11:22:03;;;;;;;8.88;2.90;;;11.40;99.90;;;;;;6337232;22;20014;-74
2023/04/12 11:24:30;;;;;;;5.63;2.70;;;11.50;99.90;;;;;;6337168;22;20026;-75
2023/04/12 11:26:56;;;;;;;10.57;4.65;;;11.50;99.90;;;;;;6364988;22;20014;-73
2023/04/12 11:29:26;;;;;;;4.57;3.17;;;11.60;99.90;;;;;;6336082;22;20030;-73
2023/04/12 11:31:52;;;;;;;9.70;3.00;;;11.60;99.90;;;;;;6364268;22;20449;-74
2023/04/12 11:34:18;;;;;;;6.63;2.78;;;11.60;99.90;;;;;;6336432;22;20030;-74
2023/04/12 11:36:52;;;;;;;8.27;2.97;;;11.50;99.90;;;;;;6364405;22;20051;-73
2023/04/12 11:39:20;;;;;;;10.75;2.90;;;11.50;99.90;;;;;;6364862;22;20014;-74
2023/04/12 11:41:49;;;;;;;7.78;3.08;;;11.50;99.90;;;;;;6336226;22;20022;-74
2023/04/12 11:44:20;;;;;;;12.90;3.10;;;11.40;99.90;;;;;;6364044;22;20025;-74
2023/04/12 11:46:46;;;;;;;8.57;3.03;;;11.50;99.90;;;;;;6364915;22;20018;-74
2023/04/12 11:49:16;;;;;;;12.68;2.38;;;11.70;99.90;;;;;;6364357;22;20011;-74
2023/04/12 11:51:43;;;;;;;11.75;2.78;;;11.80;99.90;;;;;;6364226;22;20102;-75
2023/04/12 11:54:10;;;;;;;11.30;3.67;;;11.90;99.90;;;;;;6336417;22;20048;-75
2023/04/12 11:56:36;;;;;;;5.82;2.67;;;11.90;99.90;;;;;;6335960;22;20022;-74
2023/04/12 11:59:02;;;;;;;14.40;3.53;;;12.00;99.90;;;;;;6335879;22;20038;-75
2023/04/12 12:01:28;;;;;;;8.02;4.15;;;12.00;99.90;;;;;;6336690;22;20076;-75
2023/04/12 12:03:55;;;;;;;11.05;3.05;;;12.20;99.90;;;;;;6364823;22;20010;-74
2023/04/12 12:06:22;;;;;;;8.80;3.75;;;12.30;99.90;;;;;;6364126;22;20032;-75
2023/04/12 12:08:52;;;;;;;9.93;3.15;;;12.30;99.90;;;;;;6336592;22;20026;-75
2023/04/12 12:11:22;;;;;;;4.93;2.25;;;12.40;99.90;;;;;;6310274;22;20368;-74
2023/04/12 12:13:53;;;;;;;10.18;2.63;;;12.40;99.90;;;;;;6364257;22;20026;-75
2023/04/12 12:16:27;;;;;;;6.82;2.55;;;12.40;99.90;;;;;;6336772;22;20018;-74
2023/04/12 12:18:53;;;;;;;7.25;2.17;;;12.50;99.90;;;;;;6336683;22;20094;-74
2023/04/12 12:21:19;;;;;;;6.18;2.08;;;12.50;99.90;;;;;;6364421;22;20433;-74
2023/04/12 12:23:46;;;;;;;8.55;2.20;;;12.50;99.90;;;;;;6335373;22;20041;-74
2023/04/12 12:26:23;;;;;;;9.52;2.20;;;12.60;99.90;;;;;;6335746;22;20353;-73
2023/04/12 12:28:58;;;;;;;7.50;2.72;;;12.70;99.90;;;;;;6364063;22;20088;-74
2023/04/12 12:31:29;;;;;;;7.25;2.42;;;12.70;99.90;;;;;;6363971;22;20111;-74
2023/04/12 12:33:57;;;;;;;9.05;3.33;;;12.60;99.90;;;;;;6335899;22;20026;-75
2023/04/12 12:36:31;;;;;;;9.38;2.45;;;12.50;99.90;;;;;;6335977;22;20449;-75
2023/04/12 12:39:05;;;;;;;10.95;2.28;;;12.50;99.90;;;;;;6364023;22;20760;-74
2023/04/12 12:41:32;;;;;;;8.75;2.28;;;12.40;99.90;;;;;;6335379;22;20019;-75
2023/04/12 12:43:58;;;;;;;8.02;3.10;;;12.40;99.90;;;;;;6363866;22;20018;-75
2023/04/12 12:46:25;;;;;;;7.38;2.90;;;12.30;99.90;;;;;;6335938;22;20033;-75
2023/04/12 12:48:51;;;;;;;7.70;2.85;;;12.30;99.90;;;;;;6335517;22;20430;-75
2023/04/12 12:51:18;;;;;;;11.35;4.15;;;12.20;99.90;;;;;;6330397;22;20113;-74
2023/04/12 12:53:44;;;;;;;7.30;1.90;;;12.20;99.90;;;;;;6332429;22;20022;-75
2023/04/12 12:56:11;;;;;;;5.95;2.28;;;12.20;99.90;;;;;;6332274;22;20026;-75
2023/04/12 12:58:37;;;;;;;9.43;2.67;;;12.20;99.90;;;;;;6332561;22;20027;-75